sensor_id;sensor_type;location;lat;lon;timestamp;pressure;altitude;pressure_sealevel;temperature;humidity
64713;BME280;51140;45.340;5.980;2023-02-02T00:00:45;99215.19;;;4.35;100.00
64713;BME280;51140;45.340;5.980;2023-02-02T00:03:10;99159.72;;;4.76;100.00
64713;BME280;51140;45.340;5.980;2023-02-02T00:05:35;99123.41;;;4.89;100.00
64713;BME280;51140;45.340;5.980;2023-02-02T00:08:01;99111.19;;;5.00;100.00
64713;BME280;51140;45.340;5.980;2023-02-02T00:10:27;99102.53;;;5.04;100.00
64713;BME280;51140;45.340;5.980;2023-02-02T00:12:52;99104.34;;;4.99;100.00
64713;BME280;51140;45.340;5.980;2023-02-02T00:15:18;99119.81;;;4.99;100.00
64713;BME280;51140;45.340;5.980;2023-02-02T00:17:44;99098.88;;;5.18;100.00
64713;BME280;51140;45.340;5.980;2023-02-02T00:20:09;99105.75;;;5.19;100.00
64713;BME280;51140;45.340;5.980;2023-02-02T00:22:35;99105.75;;;5.19;100.00
64713;BME280;51140;45.340;5.980;2023-02-02T00:25:00;99108.41;;;5.14;100.00
64713;BME280;51140;45.340;5.980;2023-02-02T00:27:26;99104.97;;;5.14;100.00
64713;BME280;51140;45.340;5.980;2023-02-02T00:29:51;99098.91;;;5.16;100.00
64713;BME280;51140;45.340;5.980;2023-02-02T00:32:18;99095.44;;;5.17;100.00
64713;BME280;51140;45.340;5.980;2023-02-02T00:34:44;99099.75;;;5.17;100.00
64713;BME280;51140;45.340;5.980;2023-02-02T00:37:10;99095.53;;;5.13;100.00
64713;BME280;51140;45.340;5.980;2023-02-02T00:39:35;99107.72;;;5.03;100.00
64713;BME280;51140;45.340;5.980;2023-02-02T00:42:01;99108.69;;;4.96;100.00
64713;BME280;51140;45.340;5.980;2023-02-02T00:44:27;99112.13;;;4.96;100.00
64713;BME280;51140;45.340;5.980;2023-02-02T00:47:11;99103.41;;;5.03;100.00
64713;BME280;51140;45.340;5.980;2023-02-02T00:49:36;99108.66;;;4.99;100.00
64713;BME280;51140;45.340;5.980;2023-02-02T00:52:02;99118.25;;;4.89;100.00
64713;BME280;51140;45.340;5.980;2023-02-02T00:54:27;99118.22;;;4.92;100.00
64713;BME280;51140;45.340;5.980;2023-02-02T00:56:53;99121.78;;;4.82;100.00
64713;BME280;51140;45.340;5.980;2023-02-02T00:59:18;99111.38;;;4.88;100.00
64713;BME280;51140;45.340;5.980;2023-02-02T01:01:44;99114.88;;;4.84;100.00
64713;BME280;51140;45.340;5.980;2023-02-02T01:04:09;99108.84;;;4.85;100.00
64713;BME280;51140;45.340;5.980;2023-02-02T01:06:35;99100.28;;;4.82;100.00
64713;BME280;51140;45.340;5.980;2023-02-02T01:09:00;99104.59;;;4.81;100.00
64713;BME280;51140;45.340;5.980;2023-02-02T01:11:26;99100.25;;;4.83;100.00
64713;BME280;51140;45.340;5.980;2023-02-02T01:13:51;99086.41;;;4.90;100.00
64713;BME280;51140;45.340;5.980;2023-02-02T01:16:16;99090.81;;;4.82;100.00
64713;BME280;51140;45.340;5.980;2023-02-02T01:18:42;99093.53;;;4.70;100.00
64713;BME280;51140;45.340;5.980;2023-02-02T01:21:10;99096.34;;;4.52;100.00
64713;BME280;51140;45.340;5.980;2023-02-02T01:23:37;99112.03;;;4.33;100.00
64713;BME280;51140;45.340;5.980;2023-02-02T01:26:05;99122.69;;;4.03;100.00
64713;BME280;51140;45.340;5.980;2023-02-02T01:28:32;99138.34;;;3.82;100.00
64713;BME280;51140;45.340;5.980;2023-02-02T01:30:58;99159.09;;;3.68;100.00
64713;BME280;51140;45.340;5.980;2023-02-02T01:33:23;99181.50;;;3.54;100.00
64713;BME280;51140;45.340;5.980;2023-02-02T01:35:54;99203.94;;;3.36;100.00
64713;BME280;51140;45.340;5.980;2023-02-02T01:38:20;99211.69;;;3.35;100.00
64713;BME280;51140;45.340;5.980;2023-02-02T01:40:50;99228.06;;;3.15;100.00
64713;BME280;51140;45.340;5.980;2023-02-02T01:43:26;99248.78;;;2.91;100.00
64713;BME280;51140;45.340;5.980;2023-02-02T01:45:52;99265.13;;;2.82;100.00
64713;BME280;51140;45.340;5.980;2023-02-02T01:48:20;99277.13;;;2.73;100.00
64713;BME280;51140;45.340;5.980;2023-02-02T01:50:49;99289.13;;;2.69;100.00
64713;BME280;51140;45.340;5.980;2023-02-02T01:53:17;99292.59;;;2.55;100.00
64713;BME280;51140;45.340;5.980;2023-02-02T01:55:44;99316.63;;;2.47;100.00
64713;BME280;51140;45.340;5.980;2023-02-02T01:58:16;99338.03;;;2.34;100.00
64713;BME280;51140;45.340;5.980;2023-02-02T02:00:42;99356.88;;;2.36;100.00
64713;BME280;51140;45.340;5.980;2023-02-02T02:03:12;99358.59;;;2.37;100.00
64713;BME280;51140;45.340;5.980;2023-02-02T02:06:28;99374.88;;;2.23;100.00
64713;BME280;51140;45.340;5.980;2023-02-02T02:08:38;99392.00;;;2.19;100.00
64713;BME280;51140;45.340;5.980;2023-02-02T02:11:05;99403.16;;;2.15;100.00
64713;BME280;51140;45.340;5.980;2023-02-02T02:13:31;99416.00;;;2.12;100.00
64713;BME280;51140;45.340;5.980;2023-02-02T02:16:27;99426.25;;;2.01;100.00
64713;BME280;51140;45.340;5.980;2023-02-02T02:24:49;99454.44;;;1.81;100.00
64713;BME280;51140;45.340;5.980;2023-02-02T02:30:20;99484.34;;;1.64;100.00
64713;BME280;51140;45.340;5.980;2023-02-02T02:33:02;99514.28;;;1.62;100.00
64713;BME280;51140;45.340;5.980;2023-02-02T02:35:37;99524.50;;;1.56;100.00
64713;BME280;51140;45.340;5.980;2023-02-02T02:41:00;99539.88;;;1.51;100.00
64713;BME280;51140;45.340;5.980;2023-02-02T02:43:35;99550.09;;;1.44;100.00
64713;BME280;51140;45.340;5.980;2023-02-02T02:46:02;99566.31;;;1.38;100.00
64713;BME280;51140;45.340;5.980;2023-02-02T02:48:29;99576.59;;;1.40;100.00
64713;BME280;51140;45.340;5.980;2023-02-02T02:51:08;99580.06;;;1.45;100.00
64713;BME280;51140;45.340;5.980;2023-02-02T02:53:35;99586.03;;;1.44;100.00
64713;BME280;51140;45.340;5.980;2023-02-02T02:56:10;99598.88;;;1.42;100.00
64713;BME280;51140;45.340;5.980;2023-02-02T02:59:06;99598.84;;;1.38;100.00
64713;BME280;51140;45.340;5.980;2023-02-02T03:01:44;99602.22;;;1.34;100.00
64713;BME280;51140;45.340;5.980;2023-02-02T03:04:27;99598.75;;;1.29;100.00
64713;BME280;51140;45.340;5.980;2023-02-02T03:07:00;99606.44;;;1.24;100.00
64713;BME280;51140;45.340;5.980;2023-02-02T03:09:31;99610.63;;;1.19;100.00
64713;BME280;51140;45.340;5.980;2023-02-02T03:11:59;99614.97;;;1.21;100.00
64713;BME280;51140;45.340;5.980;2023-02-02T03:14:24;99625.16;;;1.15;100.00
64713;BME280;51140;45.340;5.980;2023-02-02T03:16:51;99627.72;;;1.17;100.00
64713;BME280;51140;45.340;5.980;2023-02-02T03:19:17;99623.44;;;1.17;100.00
64713;BME280;51140;45.340;5.980;2023-02-02T03:21:42;99640.63;;;1.21;100.00
64713;BME280;51140;45.340;5.980;2023-02-02T03:24:07;99637.09;;;1.13;100.00
64713;BME280;51140;45.340;5.980;2023-02-02T03:26:33;99652.47;;;1.10;100.00
64713;BME280;51140;45.340;5.980;2023-02-02T03:28:59;99654.22;;;1.14;100.00
64713;BME280;51140;45.340;5.980;2023-02-02T03:31:26;99654.25;;;1.16;100.00
64713;BME280;51140;45.340;5.980;2023-02-02T03:33:52;99651.66;;;1.14;100.00
64713;BME280;51140;45.340;5.980;2023-02-02T03:36:18;99654.19;;;1.11;100.00
64713;BME280;51140;45.340;5.980;2023-02-02T03:38:43;99653.22;;;1.00;100.00
64713;BME280;51140;45.340;5.980;2023-02-02T03:41:08;99659.25;;;1.04;100.00
64713;BME280;51140;45.340;5.980;2023-02-02T03:43:34;99660.97;;;1.05;100.00
64713;BME280;51140;45.340;5.980;2023-02-02T03:46:02;99651.59;;;1.08;100.00
64713;BME280;51140;45.340;5.980;2023-02-02T03:48:29;99660.97;;;1.03;100.00
64713;BME280;51140;45.340;5.980;2023-02-02T03:50:55;99654.00;;;0.93;100.00
64713;BME280;51140;45.340;5.980;2023-02-02T03:53:21;99664.09;;;0.79;100.00
64713;BME280;51140;45.340;5.980;2023-02-02T03:55:46;99673.59;;;0.83;100.00
64713;BME280;51140;45.340;5.980;2023-02-02T03:58:12;99687.28;;;0.85;100.00
64713;BME280;51140;45.340;5.980;2023-02-02T04:00:37;99692.44;;;0.87;100.00
64713;BME280;51140;45.340;5.980;2023-02-02T04:03:02;99681.28;;;0.85;100.00
64713;BME280;51140;45.340;5.980;2023-02-02T04:05:28;99683.00;;;0.86;100.00
64713;BME280;51140;45.340;5.980;2023-02-02T04:07:53;99684.56;;;0.75;100.00
64713;BME280;51140;45.340;5.980;2023-02-02T04:10:19;99677.75;;;0.77;100.00
64713;BME280;51140;45.340;5.980;2023-02-02T04:12:44;99682.03;;;0.78;100.00
64713;BME280;51140;45.340;5.980;2023-02-02T04:15:10;99668.34;;;0.76;100.00
64713;BME280;51140;45.340;5.980;2023-02-02T04:17:36;99660.56;;;0.70;100.00
64713;BME280;51140;45.340;5.980;2023-02-02T04:20:03;99667.41;;;0.71;100.00
64713;BME280;51140;45.340;5.980;2023-02-02T04:22:29;99662.22;;;0.65;100.00
64713;BME280;51140;45.340;5.980;2023-02-02T04:24:54;99659.66;;;0.65;100.00
64713;BME280;51140;45.340;5.980;2023-02-02T04:27:19;99660.47;;;0.62;100.00
64713;BME280;51140;45.340;5.980;2023-02-02T04:29:45;99654.44;;;0.57;100.00
64713;BME280;51140;45.340;5.980;2023-02-02T04:32:10;99654.63;;;0.74;100.00
64713;BME280;51140;45.340;5.980;2023-02-02T04:34:38;99651.19;;;0.72;100.00
64713;BME280;51140;45.340;5.980;2023-02-02T04:37:03;99651.06;;;0.61;100.00
64713;BME280;51140;45.340;5.980;2023-02-02T04:39:28;99645.09;;;0.60;100.00
64713;BME280;51140;45.340;5.980;2023-02-02T04:41:55;99645.09;;;0.60;100.00
64713;BME280;51140;45.340;5.980;2023-02-02T04:44:20;99641.72;;;0.65;100.00
64713;BME280;51140;45.340;5.980;2023-02-02T04:46:45;99629.81;;;0.73;100.00
64713;BME280;51140;45.340;5.980;2023-02-02T04:49:11;99624.91;;;0.91;100.00
64713;BME280;51140;45.340;5.980;2023-02-02T04:51:38;99602.75;;;0.99;100.00
64713;BME280;51140;45.340;5.980;2023-02-02T04:54:04;99584.91;;;1.11;100.00
64713;BME280;51140;45.340;5.980;2023-02-02T04:56:30;99560.09;;;1.10;100.00
64713;BME280;51140;45.340;5.980;2023-02-02T04:58:55;99542.09;;;1.07;100.00
64713;BME280;51140;45.340;5.980;2023-02-02T05:01:21;99535.19;;;0.99;100.00
64713;BME280;51140;45.340;5.980;2023-02-02T05:03:47;99541.03;;;0.82;100.00
64713;BME280;51140;45.340;5.980;2023-02-02T05:06:13;99537.53;;;0.76;100.00
64713;BME280;51140;45.340;5.980;2023-02-02T05:08:39;99533.16;;;0.67;100.00
64713;BME280;51140;45.340;5.980;2023-02-02T05:11:13;99543.38;;;0.62;100.00
64713;BME280;51140;45.340;5.980;2023-02-02T05:13:39;99548.44;;;0.55;100.00
64713;BME280;51140;45.340;5.980;2023-02-02T05:16:05;99556.97;;;0.54;100.00
64713;BME280;51140;45.340;5.980;2023-02-02T05:18:31;99557.78;;;0.50;100.00
64713;BME280;51140;45.340;5.980;2023-02-02T05:21:01;99568.00;;;0.45;100.00
64713;BME280;51140;45.340;5.980;2023-02-02T05:23:27;99580.72;;;0.39;100.00
64713;BME280;51140;45.340;5.980;2023-02-02T05:25:53;99587.41;;;0.28;100.00
64713;BME280;51140;45.340;5.980;2023-02-02T05:28:20;99610.53;;;0.32;100.00
64713;BME280;51140;45.340;5.980;2023-02-02T05:30:45;99613.22;;;0.40;100.00
64713;BME280;51140;45.340;5.980;2023-02-02T05:33:10;99608.09;;;0.40;100.00
64713;BME280;51140;45.340;5.980;2023-02-02T05:35:36;99620.81;;;0.36;100.00
64713;BME280;51140;45.340;5.980;2023-02-02T05:38:02;99621.78;;;0.42;100.00
64713;BME280;51140;45.340;5.980;2023-02-02T05:40:27;99615.06;;;0.50;100.00
64713;BME280;51140;45.340;5.980;2023-02-02T05:42:53;99613.19;;;0.39;100.00
64713;BME280;51140;45.340;5.980;2023-02-02T05:45:18;99608.09;;;0.40;100.00
64713;BME280;51140;45.340;5.980;2023-02-02T05:47:43;99619.22;;;0.41;100.00
64713;BME280;51140;45.340;5.980;2023-02-02T05:50:09;99621.88;;;0.48;100.00
64713;BME280;51140;45.340;5.980;2023-02-02T05:52:36;99624.44;;;0.48;100.00
64713;BME280;51140;45.340;5.980;2023-02-02T05:55:03;99630.34;;;0.43;100.00
64713;BME280;51140;45.340;5.980;2023-02-02T05:57:29;99627.69;;;0.38;100.00
64713;BME280;51140;45.340;5.980;2023-02-02T05:59:54;99637.03;;;0.33;100.00
64713;BME280;51140;45.340;5.980;2023-02-02T06:02:19;99636.06;;;0.25;100.00
64713;BME280;51140;45.340;5.980;2023-02-02T06:04:45;99642.88;;;0.23;100.00
64713;BME280;51140;45.340;5.980;2023-02-02T06:07:10;99653.13;;;0.21;100.00
64713;BME280;51140;45.340;5.980;2023-02-02T06:09:36;99649.63;;;0.15;100.00
64713;BME280;51140;45.340;5.980;2023-02-02T06:12:02;99653.81;;;0.10;100.00
64713;BME280;51140;45.340;5.980;2023-02-02T06:14:28;99653.91;;;0.17;100.00
64713;BME280;51140;45.340;5.980;2023-02-02T06:16:53;99664.22;;;0.22;100.00
64713;BME280;51140;45.340;5.980;2023-02-02T06:19:18;99670.25;;;0.25;100.00
64713;BME280;51140;45.340;5.980;2023-02-02T06:21:44;99655.84;;;0.34;100.00
64713;BME280;51140;45.340;5.980;2023-02-02T06:24:09;99649.88;;;0.36;100.00
64713;BME280;51140;45.340;5.980;2023-02-02T06:26:35;99650.75;;;0.37;100.00
64713;BME280;51140;45.340;5.980;2023-02-02T06:29:00;99647.41;;;0.41;100.00
64713;BME280;51140;45.340;5.980;2023-02-02T06:31:26;99648.28;;;0.41;100.00
64713;BME280;51140;45.340;5.980;2023-02-02T06:33:54;99644.00;;;0.42;100.00
64713;BME280;51140;45.340;5.980;2023-02-02T06:36:20;99639.66;;;0.39;100.00
64713;BME280;51140;45.340;5.980;2023-02-02T06:38:49;99629.41;;;0.39;100.00
64713;BME280;51140;45.340;5.980;2023-02-02T06:41:15;99641.31;;;0.34;100.00
64713;BME280;51140;45.340;5.980;2023-02-02T06:43:41;99641.28;;;0.32;100.00
64713;BME280;51140;45.340;5.980;2023-02-02T06:46:06;99631.81;;;0.27;100.00
64713;BME280;51140;45.340;5.980;2023-02-02T06:48:32;99637.69;;;0.18;100.00
64713;BME280;51140;45.340;5.980;2023-02-02T06:50:58;99644.53;;;0.18;100.00
64713;BME280;51140;45.340;5.980;2023-02-02T06:53:24;99649.66;;;0.18;100.00
64713;BME280;51140;45.340;5.980;2023-02-02T06:56:04;99647.09;;;0.19;100.00
64713;BME280;51140;45.340;5.980;2023-02-02T06:58:31;99649.75;;;0.25;100.00
64713;BME280;51140;45.340;5.980;2023-02-02T07:01:08;99652.34;;;0.27;100.00
64713;BME280;51140;45.340;5.980;2023-02-02T07:03:34;99651.50;;;0.29;100.00
64713;BME280;51140;45.340;5.980;2023-02-02T07:06:13;99645.47;;;0.26;100.00
64713;BME280;51140;45.340;5.980;2023-02-02T07:08:38;99648.84;;;0.22;100.00
64713;BME280;51140;45.340;5.980;2023-02-02T07:11:04;99646.25;;;0.19;100.00
64713;BME280;51140;45.340;5.980;2023-02-02T07:13:29;99647.94;;;0.17;100.00
64713;BME280;51140;45.340;5.980;2023-02-02T07:15:54;99645.25;;;0.09;100.00
64713;BME280;51140;45.340;5.980;2023-02-02T07:18:21;99652.13;;;0.12;100.00
64713;BME280;51140;45.340;5.980;2023-02-02T07:20:47;99647.00;;;0.12;100.00
64713;BME280;51140;45.340;5.980;2023-02-02T07:23:12;99649.63;;;0.16;100.00
64713;BME280;51140;45.340;5.980;2023-02-02T07:25:37;99643.72;;;0.20;100.00
64713;BME280;51140;45.340;5.980;2023-02-02T07:28:03;99648.03;;;0.24;100.00
64713;BME280;51140;45.340;5.980;2023-02-02T07:30:28;99641.25;;;0.29;100.00
64713;BME280;51140;45.340;5.980;2023-02-02T07:32:54;99642.13;;;0.31;100.00
64713;BME280;51140;45.340;5.980;2023-02-02T07:35:20;99624.25;;;0.36;100.00
64713;BME280;51140;45.340;5.980;2023-02-02T07:37:53;99637.94;;;0.38;100.00
64713;BME280;51140;45.340;5.980;2023-02-02T07:40:19;99633.75;;;0.42;100.00
64713;BME280;51140;45.340;5.980;2023-02-02T07:42:46;99630.28;;;0.40;100.00
64713;BME280;51140;45.340;5.980;2023-02-02T07:45:12;99635.50;;;0.46;100.00
64713;BME280;51140;45.340;5.980;2023-02-02T07:47:37;99640.78;;;0.59;100.00
64713;BME280;51140;45.340;5.980;2023-02-02T07:50:02;99637.47;;;0.68;100.00
64713;BME280;51140;45.340;5.980;2023-02-02T07:52:28;99620.41;;;0.70;100.00
64713;BME280;51140;45.340;5.980;2023-02-02T07:54:53;99615.31;;;0.73;100.00
64713;BME280;51140;45.340;5.980;2023-02-02T07:57:19;99609.31;;;0.73;100.00
64713;BME280;51140;45.340;5.980;2023-02-02T07:59:45;99606.75;;;0.73;100.00
64713;BME280;51140;45.340;5.980;2023-02-02T08:02:11;99611.78;;;0.65;100.00
64713;BME280;51140;45.340;5.980;2023-02-02T08:04:36;99614.38;;;0.67;100.00
64713;BME280;51140;45.340;5.980;2023-02-02T08:07:01;99614.38;;;0.67;100.00
64713;BME280;51140;45.340;5.980;2023-02-02T08:09:27;99616.97;;;0.68;100.00
64713;BME280;51140;45.340;5.980;2023-02-02T08:11:52;99619.56;;;0.73;100.00
64713;BME280;51140;45.340;5.980;2023-02-02T08:14:18;99623.97;;;0.81;100.00
64713;BME280;51140;45.340;5.980;2023-02-02T08:16:43;99602.63;;;0.84;100.00
64713;BME280;51140;45.340;5.980;2023-02-02T08:19:09;99601.81;;;0.91;100.00
64713;BME280;51140;45.340;5.980;2023-02-02T08:21:35;99589.88;;;0.94;100.00
64713;BME280;51140;45.340;5.980;2023-02-02T08:24:01;99583.06;;;0.97;100.00
64713;BME280;51140;45.340;5.980;2023-02-02T08:26:29;99581.41;;;1.02;100.00
64713;BME280;51140;45.340;5.980;2023-02-02T08:28:59;99569.47;;;1.08;100.00
64713;BME280;51140;45.340;5.980;2023-02-02T08:31:33;99576.34;;;1.11;100.00
64713;BME280;51140;45.340;5.980;2023-02-02T08:33:59;99576.41;;;1.17;100.00
64713;BME280;51140;45.340;5.980;2023-02-02T08:36:26;99576.41;;;1.18;100.00
64713;BME280;51140;45.340;5.980;2023-02-02T08:38:52;99571.34;;;1.23;100.00
64713;BME280;51140;45.340;5.980;2023-02-02T08:41:21;99567.94;;;1.27;100.00
64713;BME280;51140;45.340;5.980;2023-02-02T08:43:47;99547.47;;;1.35;100.00
64713;BME280;51140;45.340;5.980;2023-02-02T08:46:14;99544.03;;;1.34;100.00
64713;BME280;51140;45.340;5.980;2023-02-02T08:48:40;99551.69;;;1.28;100.00
64713;BME280;51140;45.340;5.980;2023-02-02T08:51:06;99538.03;;;1.32;100.00
64713;BME280;51140;45.340;5.980;2023-02-02T08:53:32;99535.47;;;1.34;100.00
64713;BME280;51140;45.340;5.980;2023-02-02T08:56:08;99524.38;;;1.35;100.00
64713;BME280;51140;45.340;5.980;2023-02-02T08:58:33;99532.03;;;1.32;100.00
64713;BME280;51140;45.340;5.980;2023-02-02T09:01:07;99537.19;;;1.32;100.00
64713;BME280;51140;45.340;5.980;2023-02-02T09:03:35;99543.13;;;1.28;100.00
64713;BME280;51140;45.340;5.980;2023-02-02T09:06:04;99544.03;;;1.31;100.00
64713;BME280;51140;45.340;5.980;2023-02-02T09:08:30;99542.28;;;1.29;100.00
64713;BME280;51140;45.340;5.980;2023-02-02T09:11:02;99535.44;;;1.29;100.00
64713;BME280;51140;45.340;5.980;2023-02-02T09:13:27;99549.13;;;1.27;100.00
64713;BME280;51140;45.340;5.980;2023-02-02T09:15:53;99567.94;;;1.24;100.00
64713;BME280;51140;45.340;5.980;2023-02-02T09:18:18;99578.94;;;1.15;100.00
64713;BME280;51140;45.340;5.980;2023-02-02T09:20:43;99584.09;;;1.17;100.00
64713;BME280;51140;45.340;5.980;2023-02-02T09:23:09;99588.34;;;1.15;100.00
64713;BME280;51140;45.340;5.980;2023-02-02T09:25:34;99585.06;;;1.27;100.00
64713;BME280;51140;45.340;5.980;2023-02-02T09:27:59;99580.88;;;1.39;100.00
64713;BME280;51140;45.340;5.980;2023-02-02T09:30:25;99563.84;;;1.52;100.00
64713;BME280;51140;45.340;5.980;2023-02-02T09:32:50;99549.38;;;1.63;100.00
64713;BME280;51140;45.340;5.980;2023-02-02T09:35:16;99535.75;;;1.75;100.00
64713;BME280;51140;45.340;5.980;2023-02-02T09:37:41;99520.41;;;1.88;100.00
64713;BME280;51140;45.340;5.980;2023-02-02T09:40:13;99505.00;;;1.96;100.00
64713;BME280;51140;45.340;5.980;2023-02-02T09:42:55;99500.81;;;2.07;100.00
64713;BME280;51140;45.340;5.980;2023-02-02T09:48:23;99482.00;;;2.22;100.00
64713;BME280;51140;45.340;5.980;2023-02-02T09:51:12;99471.72;;;2.31;100.00
64713;BME280;51140;45.340;5.980;2023-02-02T09:53:57;99469.16;;;2.33;100.00
64713;BME280;51140;45.340;5.980;2023-02-02T09:56:26;99461.47;;;2.37;100.00
64713;BME280;51140;45.340;5.980;2023-02-02T09:58:55;99460.63;;;2.46;100.00
64713;BME280;51140;45.340;5.980;2023-02-02T10:01:34;99454.66;;;2.55;100.00
64713;BME280;51140;45.340;5.980;2023-02-02T10:04:15;99444.38;;;2.65;100.00
64713;BME280;51140;45.340;5.980;2023-02-02T10:06:47;99440.06;;;2.78;100.00
64713;BME280;51140;45.340;5.980;2023-02-02T10:14:33;99421.16;;;3.15;100.00
64713;BME280;51140;45.340;5.980;2023-02-02T10:19:47;99362.28;;;4.30;100.00
64713;BME280;51140;45.340;5.980;2023-02-02T10:22:19;99330.28;;;5.39;100.00
64713;BME280;51140;45.340;5.980;2023-02-02T10:24:45;99262.94;;;6.12;100.00
64713;BME280;51140;45.340;5.980;2023-02-02T10:27:14;99214.66;;;6.59;100.00
64713;BME280;51140;45.340;5.980;2023-02-02T10:29:58;99168.13;;;6.99;100.00
64713;BME280;51140;45.340;5.980;2023-02-02T10:32:34;99162.16;;;7.36;100.00
64713;BME280;51140;45.340;5.980;2023-02-02T10:35:30;99137.97;;;7.72;100.00
64713;BME280;51140;45.340;5.980;2023-02-02T10:38:00;99128.63;;;7.99;100.00
64713;BME280;51140;45.340;5.980;2023-02-02T10:43:25;99142.19;;;8.44;100.00
64713;BME280;51140;45.340;5.980;2023-02-02T10:48:45;99144.63;;;8.80;100.00
64713;BME280;51140;45.340;5.980;2023-02-02T10:51:26;99153.91;;;8.59;100.00
64713;BME280;51140;45.340;5.980;2023-02-02T10:53:55;99150.06;;;8.40;100.00
64713;BME280;51140;45.340;5.980;2023-02-02T10:56:30;99159.81;;;8.64;100.00
64713;BME280;51140;45.340;5.980;2023-02-02T10:59:06;99155.06;;;8.78;100.00
64713;BME280;51140;45.340;5.980;2023-02-02T11:01:35;99160.69;;;8.63;100.00
64713;BME280;51140;45.340;5.980;2023-02-02T11:04:00;99156.03;;;8.45;100.00
64713;BME280;51140;45.340;5.980;2023-02-02T11:06:45;99154.19;;;8.79;100.00
64713;BME280;51140;45.340;5.980;2023-02-02T11:09:25;99146.38;;;8.79;100.00
64713;BME280;51140;45.340;5.980;2023-02-02T11:11:56;99146.44;;;8.78;100.00
64713;BME280;51140;45.340;5.980;2023-02-02T11:14:44;99155.25;;;8.72;100.00
64713;BME280;51140;45.340;5.980;2023-02-02T11:17:37;99138.06;;;8.68;100.00
64713;BME280;51140;45.340;5.980;2023-02-02T11:20:31;99178.25;;;8.86;100.00
64713;BME280;51140;45.340;5.980;2023-02-02T11:23:04;99192.06;;;8.88;100.00
64713;BME280;51140;45.340;5.980;2023-02-02T11:25:38;99234.56;;;8.86;100.00
64713;BME280;51140;45.340;5.980;2023-02-02T11:28:12;99253.50;;;8.91;100.00
64713;BME280;51140;45.340;5.980;2023-02-02T11:30:45;99265.31;;;9.01;100.00
64713;BME280;51140;45.340;5.980;2023-02-02T11:33:35;99282.09;;;9.20;100.00
64713;BME280;51140;45.340;5.980;2023-02-02T11:36:20;99278.91;;;9.41;100.00
64713;BME280;51140;45.340;5.980;2023-02-02T11:38:45;99275.59;;;9.66;100.00
64713;BME280;51140;45.340;5.980;2023-02-02T11:41:11;99273.09;;;9.91;100.00
64713;BME280;51140;45.340;5.980;2023-02-02T11:43:47;99291.00;;;10.01;100.00
64713;BME280;51140;45.340;5.980;2023-02-02T11:46:25;99332.16;;;9.89;100.00
64713;BME280;51140;45.340;5.980;2023-02-02T11:49:00;99348.69;;;10.16;100.00
64713;BME280;51140;45.340;5.980;2023-02-02T11:51:27;99366.66;;;10.25;100.00
64713;BME280;51140;45.340;5.980;2023-02-02T11:54:05;99374.09;;;10.37;100.00
64713;BME280;51140;45.340;5.980;2023-02-02T11:56:34;99389.16;;;10.55;100.00
64713;BME280;51140;45.340;5.980;2023-02-02T11:59:02;99422.13;;;10.56;100.00
64713;BME280;51140;45.340;5.980;2023-02-02T12:01:37;99403.13;;;10.81;100.00
64713;BME280;51140;45.340;5.980;2023-02-02T12:06:39;99442.56;;;11.48;100.00
64713;BME280;51140;45.340;5.980;2023-02-02T12:09:13;99473.03;;;11.72;100.00
64713;BME280;51140;45.340;5.980;2023-02-02T12:12:08;99482.78;;;11.92;100.00
64713;BME280;51140;45.340;5.980;2023-02-02T12:17:42;99499.69;;;12.07;100.00
64713;BME280;51140;45.340;5.980;2023-02-02T12:26:28;99689.50;;;17.27;100.00
64713;BME280;51140;45.340;5.980;2023-02-02T12:29:19;99755.28;;;20.63;100.00
64713;BME280;51140;45.340;5.980;2023-02-02T12:31:51;99761.22;;;20.67;100.00
64713;BME280;51140;45.340;5.980;2023-02-02T12:34:27;99761.34;;;21.16;100.00
64713;BME280;51140;45.340;5.980;2023-02-02T12:40:13;99747.03;;;17.35;100.00
64713;BME280;51140;45.340;5.980;2023-02-02T12:56:27;99671.59;;;14.06;100.00
64713;BME280;51140;45.340;5.980;2023-02-02T13:04:19;99492.38;;;10.59;100.00
64713;BME280;51140;45.340;5.980;2023-02-02T13:12:18;99341.31;;;10.02;100.00
64713;BME280;51140;45.340;5.980;2023-02-02T13:14:54;99333.84;;;9.90;100.00
64713;BME280;51140;45.340;5.980;2023-02-02T13:19:54;99335.88;;;9.80;100.00
64713;BME280;51140;45.340;5.980;2023-02-02T13:22:37;99321.34;;;9.73;100.00
64713;BME280;51140;45.340;5.980;2023-02-02T13:25:08;99293.84;;;9.92;100.00
64713;BME280;51140;45.340;5.980;2023-02-02T13:27:39;99313.16;;;9.85;100.00
64713;BME280;51140;45.340;5.980;2023-02-02T13:30:30;99308.81;;;9.86;100.00
64713;BME280;51140;45.340;5.980;2023-02-02T13:32:59;99319.66;;;9.72;100.00
64713;BME280;51140;45.340;5.980;2023-02-02T13:35:44;99320.06;;;9.57;100.00
64713;BME280;51140;45.340;5.980;2023-02-02T13:38:25;99283.13;;;9.75;100.00
64713;BME280;51140;45.340;5.980;2023-02-02T13:40:54;99282.69;;;9.61;100.00
64713;BME280;51140;45.340;5.980;2023-02-02T13:43:24;99267.03;;;9.62;100.00
64713;BME280;51140;45.340;5.980;2023-02-02T13:48:36;99259.28;;;9.59;100.00
64713;BME280;51140;45.340;5.980;2023-02-02T14:01:58;99244.59;;;9.86;100.00
64713;BME280;51140;45.340;5.980;2023-02-02T14:04:28;99237.03;;;9.79;100.00
64713;BME280;51140;45.340;5.980;2023-02-02T14:07:00;99234.50;;;9.77;100.00
64713;BME280;51140;45.340;5.980;2023-02-02T14:09:31;99244.47;;;9.63;100.00
64713;BME280;51140;45.340;5.980;2023-02-02T14:12:00;99254.13;;;9.58;100.00
64713;BME280;51140;45.340;5.980;2023-02-02T14:14:26;99247.97;;;9.62;100.00
64713;BME280;51140;45.340;5.980;2023-02-02T14:22:47;99263.25;;;9.72;100.00
64713;BME280;51140;45.340;5.980;2023-02-02T14:27:59;99262.31;;;9.75;100.00
64713;BME280;51140;45.340;5.980;2023-02-02T14:30:36;99258.91;;;9.73;100.00
64713;BME280;51140;45.340;5.980;2023-02-02T14:38:11;99269.16;;;9.78;100.00
64713;BME280;51140;45.340;5.980;2023-02-02T14:41:33;99274.38;;;9.78;100.00
64713;BME280;51140;45.340;5.980;2023-02-02T14:43:46;99264.91;;;9.75;100.00
64713;BME280;51140;45.340;5.980;2023-02-02T14:46:21;99289.41;;;9.68;100.00
64713;BME280;51140;45.340;5.980;2023-02-02T14:49:06;99283.94;;;9.77;100.00